sensor_id;sensor_type;location;lat;lon;timestamp;temperature;humidity
22676;DHT22;12521;43.310;21.876;2022-10-16T00:03:35;10.9;96.0
22676;DHT22;12521;43.310;21.876;2022-10-16T00:08:12;10.9;96.0
22676;DHT22;12521;43.310;21.876;2022-10-16T00:12:49;10.8;96.0
22676;DHT22;12521;43.310;21.876;2022-10-16T00:17:26;10.8;96.0
22676;DHT22;12521;43.310;21.876;2022-10-16T00:22:02;10.6;96.0
22676;DHT22;12521;43.310;21.876;2022-10-16T00:26:40;10.6;96.0
22676;DHT22;12521;43.310;21.876;2022-10-16T00:31:20;10.5;96.0
22676;DHT22;12521;43.310;21.876;2022-10-16T00:36:02;10.5;96.0
22676;DHT22;12521;43.310;21.876;2022-10-16T00:40:43;10.4;96.0
22676;DHT22;12521;43.310;21.876;2022-10-16T00:45:20;10.4;96.0
22676;DHT22;12521;43.310;21.876;2022-10-16T00:50:05;10.4;96.0
22676;DHT22;12521;43.310;21.876;2022-10-16T00:54:56;10.4;96.0
22676;DHT22;12521;43.310;21.876;2022-10-16T00:59:40;10.4;96.0
22676;DHT22;12521;43.310;21.876;2022-10-16T01:04:19;10.3;96.0
22676;DHT22;12521;43.310;21.876;2022-10-16T01:09:16;10.3;96.0
22676;DHT22;12521;43.310;21.876;2022-10-16T01:14:34;10.2;96.0
22676;DHT22;12521;43.310;21.876;2022-10-16T01:19:57;10.2;96.0
22676;DHT22;12521;43.310;21.876;2022-10-16T01:25:05;10.1;96.0
22676;DHT22;12521;43.310;21.876;2022-10-16T01:30:15;10.1;96.0
22676;DHT22;12521;43.310;21.876;2022-10-16T01:35:11;10.0;96.0
22676;DHT22;12521;43.310;21.876;2022-10-16T01:40:10;10.0;96.0
22676;DHT22;12521;43.310;21.876;2022-10-16T01:44:57;10.0;96.0
22676;DHT22;12521;43.310;21.876;2022-10-16T01:49:44;10.0;96.0
22676;DHT22;12521;43.310;21.876;2022-10-16T01:54:27;9.9;96.0
22676;DHT22;12521;43.310;21.876;2022-10-16T01:59:18;9.9;96.0
22676;DHT22;12521;43.310;21.876;2022-10-16T02:04:16;9.8;96.0
22676;DHT22;12521;43.310;21.876;2022-10-16T02:09:05;9.8;96.0
22676;DHT22;12521;43.310;21.876;2022-10-16T02:13:46;9.8;96.0
22676;DHT22;12521;43.310;21.876;2022-10-16T02:18:31;9.8;96.0
22676;DHT22;12521;43.310;21.876;2022-10-16T02:23:20;9.8;96.0
22676;DHT22;12521;43.310;21.876;2022-10-16T02:28:19;9.8;96.0
22676;DHT22;12521;43.310;21.876;2022-10-16T02:33:10;9.9;96.0
22676;DHT22;12521;43.310;21.876;2022-10-16T02:37:52;9.9;96.0
22676;DHT22;12521;43.310;21.876;2022-10-16T02:42:36;9.9;96.0
22676;DHT22;12521;43.310;21.876;2022-10-16T02:47:16;9.9;96.0
22676;DHT22;12521;43.310;21.876;2022-10-16T02:51:53;9.9;96.0
22676;DHT22;12521;43.310;21.876;2022-10-16T02:56:29;9.9;96.0
22676;DHT22;12521;43.310;21.876;2022-10-16T03:01:07;9.8;96.0
22676;DHT22;12521;43.310;21.876;2022-10-16T03:05:44;9.8;96.0
22676;DHT22;12521;43.310;21.876;2022-10-16T03:10:21;9.8;96.0
22676;DHT22;12521;43.310;21.876;2022-10-16T03:14:58;9.8;96.0
22676;DHT22;12521;43.310;21.876;2022-10-16T03:19:35;9.8;96.0
22676;DHT22;12521;43.310;21.876;2022-10-16T03:24:11;9.7;96.0
22676;DHT22;12521;43.310;21.876;2022-10-16T03:28:48;9.7;96.0
22676;DHT22;12521;43.310;21.876;2022-10-16T03:33:24;9.6;96.0
22676;DHT22;12521;43.310;21.876;2022-10-16T03:38:01;9.6;96.0
22676;DHT22;12521;43.310;21.876;2022-10-16T03:42:38;9.5;96.0
22676;DHT22;12521;43.310;21.876;2022-10-16T03:47:15;9.5;96.0
22676;DHT22;12521;43.310;21.876;2022-10-16T03:51:52;9.4;96.0
22676;DHT22;12521;43.310;21.876;2022-10-16T03:56:29;9.4;96.0
22676;DHT22;12521;43.310;21.876;2022-10-16T04:01:06;9.4;96.0
22676;DHT22;12521;43.310;21.876;2022-10-16T04:05:43;9.4;96.0
22676;DHT22;12521;43.310;21.876;2022-10-16T04:10:19;9.4;96.0
22676;DHT22;12521;43.310;21.876;2022-10-16T04:14:56;9.2;96.0
22676;DHT22;12521;43.310;21.876;2022-10-16T04:19:33;9.2;96.0
22676;DHT22;12521;43.310;21.876;2022-10-16T04:24:09;8.9;96.0
22676;DHT22;12521;43.310;21.876;2022-10-16T04:28:46;8.9;96.0
22676;DHT22;12521;43.310;21.876;2022-10-16T04:33:22;8.8;96.0
22676;DHT22;12521;43.310;21.876;2022-10-16T04:37:59;8.8;96.0
22676;DHT22;12521;43.310;21.876;2022-10-16T04:42:36;8.7;96.0
22676;DHT22;12521;43.310;21.876;2022-10-16T04:47:13;8.7;96.0
22676;DHT22;12521;43.310;21.876;2022-10-16T04:57:06;8.7;96.0
22676;DHT22;12521;43.310;21.876;2022-10-16T05:01:45;8.7;96.0
22676;DHT22;12521;43.310;21.876;2022-10-16T05:06:22;8.7;96.0
22676;DHT22;12521;43.310;21.876;2022-10-16T05:10:59;8.7;96.0
22676;DHT22;12521;43.310;21.876;2022-10-16T05:15:35;8.7;96.0
22676;DHT22;12521;43.310;21.876;2022-10-16T05:20:13;8.7;96.0
22676;DHT22;12521;43.310;21.876;2022-10-16T05:24:49;8.7;96.0
22676;DHT22;12521;43.310;21.876;2022-10-16T05:29:26;8.7;96.0
22676;DHT22;12521;43.310;21.876;2022-10-16T05:34:05;8.7;96.0
22676;DHT22;12521;43.310;21.876;2022-10-16T05:38:42;8.7;96.0
22676;DHT22;12521;43.310;21.876;2022-10-16T05:43:19;8.7;96.0
22676;DHT22;12521;43.310;21.876;2022-10-16T05:47:57;8.7;96.0
22676;DHT22;12521;43.310;21.876;2022-10-16T05:52:33;8.6;96.0
22676;DHT22;12521;43.310;21.876;2022-10-16T05:57:11;8.6;96.0
22676;DHT22;12521;43.310;21.876;2022-10-16T06:01:48;8.6;96.0
22676;DHT22;12521;43.310;21.876;2022-10-16T06:06:27;8.6;96.0
22676;DHT22;12521;43.310;21.876;2022-10-16T06:11:09;8.8;96.0
22676;DHT22;12521;43.310;21.876;2022-10-16T06:15:52;8.8;96.0
22676;DHT22;12521;43.310;21.876;2022-10-16T06:20:28;8.8;96.0
22676;DHT22;12521;43.310;21.876;2022-10-16T06:25:06;8.9;96.0
22676;DHT22;12521;43.310;21.876;2022-10-16T06:29:45;8.9;96.0
22676;DHT22;12521;43.310;21.876;2022-10-16T06:34:22;9.1;96.0
22676;DHT22;12521;43.310;21.876;2022-10-16T06:38:58;9.1;96.0
22676;DHT22;12521;43.310;21.876;2022-10-16T06:43:35;9.3;96.0
22676;DHT22;12521;43.310;21.876;2022-10-16T06:48:12;9.3;96.0
22676;DHT22;12521;43.310;21.876;2022-10-16T06:52:48;9.4;96.0
22676;DHT22;12521;43.310;21.876;2022-10-16T06:57:26;9.4;96.0
22676;DHT22;12521;43.310;21.876;2022-10-16T07:02:02;9.6;96.0
22676;DHT22;12521;43.310;21.876;2022-10-16T07:06:39;9.6;96.0
22676;DHT22;12521;43.310;21.876;2022-10-16T07:11:20;10.0;96.0
22676;DHT22;12521;43.310;21.876;2022-10-16T07:16:05;10.0;96.0
22676;DHT22;12521;43.310;21.876;2022-10-16T07:20:47;10.0;96.0
22676;DHT22;12521;43.310;21.876;2022-10-16T07:25:24;10.3;96.0
22676;DHT22;12521;43.310;21.876;2022-10-16T07:30:00;10.3;96.0
22676;DHT22;12521;43.310;21.876;2022-10-16T07:34:37;10.6;96.0
22676;DHT22;12521;43.310;21.876;2022-10-16T07:39:13;10.6;96.0
22676;DHT22;12521;43.310;21.876;2022-10-16T07:43:52;10.9;96.0
22676;DHT22;12521;43.310;21.876;2022-10-16T07:48:34;10.9;96.0
22676;DHT22;12521;43.310;21.876;2022-10-16T07:53:11;11.2;96.0
22676;DHT22;12521;43.310;21.876;2022-10-16T07:57:49;11.2;96.0
22676;DHT22;12521;43.310;21.876;2022-10-16T08:02:25;11.6;96.0
22676;DHT22;12521;43.310;21.876;2022-10-16T08:07:02;11.6;96.0
22676;DHT22;12521;43.310;21.876;2022-10-16T08:11:39;11.9;96.0
22676;DHT22;12521;43.310;21.876;2022-10-16T08:16:15;11.9;96.0
22676;DHT22;12521;43.310;21.876;2022-10-16T08:20:57;11.9;96.0
22676;DHT22;12521;43.310;21.876;2022-10-16T08:25:36;12.2;96.0
22676;DHT22;12521;43.310;21.876;2022-10-16T08:30:20;12.2;96.0
22676;DHT22;12521;43.310;21.876;2022-10-16T08:35:00;12.4;96.0
22676;DHT22;12521;43.310;21.876;2022-10-16T08:39:37;12.4;96.0
22676;DHT22;12521;43.310;21.876;2022-10-16T08:44:47;12.7;96.0
22676;DHT22;12521;43.310;21.876;2022-10-16T08:50:24;12.7;96.0
22676;DHT22;12521;43.310;21.876;2022-10-16T08:55:30;13.0;96.0
22676;DHT22;12521;43.310;21.876;2022-10-16T09:00:19;13.0;96.0
22676;DHT22;12521;43.310;21.876;2022-10-16T09:05:31;13.4;96.0
22676;DHT22;12521;43.310;21.876;2022-10-16T09:11:00;13.4;96.0
22676;DHT22;12521;43.310;21.876;2022-10-16T09:16:22;13.8;96.0
22676;DHT22;12521;43.310;21.876;2022-10-16T09:21:22;14.2;96.0
22676;DHT22;12521;43.310;21.876;2022-10-16T09:26:15;14.2;96.0
22676;DHT22;12521;43.310;21.876;2022-10-16T09:30:55;14.2;96.0
22676;DHT22;12521;43.310;21.876;2022-10-16T09:35:40;14.6;96.0
22676;DHT22;12521;43.310;21.876;2022-10-16T09:40:32;14.6;96.0
22676;DHT22;12521;43.310;21.876;2022-10-16T09:45:23;15.0;96.0
22676;DHT22;12521;43.310;21.876;2022-10-16T09:50:20;15.0;96.0
22676;DHT22;12521;43.310;21.876;2022-10-16T09:55:16;15.4;96.0
22676;DHT22;12521;43.310;21.876;2022-10-16T09:59:57;15.4;96.0
22676;DHT22;12521;43.310;21.876;2022-10-16T10:04:51;15.8;96.0
22676;DHT22;12521;43.310;21.876;2022-10-16T10:09:38;15.8;96.0
22676;DHT22;12521;43.310;21.876;2022-10-16T10:14:25;16.2;96.0
22676;DHT22;12521;43.310;21.876;2022-10-16T10:19:16;16.2;96.0
22676;DHT22;12521;43.310;21.876;2022-10-16T10:23:56;16.7;96.0
22676;DHT22;12521;43.310;21.876;2022-10-16T10:28:54;16.7;96.0
22676;DHT22;12521;43.310;21.876;2022-10-16T10:33:57;17.1;96.0
22676;DHT22;12521;43.310;21.876;2022-10-16T10:39:00;17.1;96.0
22676;DHT22;12521;43.310;21.876;2022-10-16T10:44:11;17.5;96.0
22676;DHT22;12521;43.310;21.876;2022-10-16T10:49:56;17.5;96.0
22676;DHT22;12521;43.310;21.876;2022-10-16T10:55:19;17.8;96.0
22676;DHT22;12521;43.310;21.876;2022-10-16T11:00:31;17.8;96.0
22676;DHT22;12521;43.310;21.876;2022-10-16T11:05:45;18.2;96.0
22676;DHT22;12521;43.310;21.876;2022-10-16T11:10:54;18.2;96.0
22676;DHT22;12521;43.310;21.876;2022-10-16T11:15:57;18.5;96.0
22676;DHT22;12521;43.310;21.876;2022-10-16T11:21:07;18.5;96.0
22676;DHT22;12521;43.310;21.876;2022-10-16T11:26:04;18.8;96.0
22676;DHT22;12521;43.310;21.876;2022-10-16T11:31:10;18.8;96.0
22676;DHT22;12521;43.310;21.876;2022-10-16T11:36:16;19.0;96.0
22676;DHT22;12521;43.310;21.876;2022-10-16T11:41:24;19.2;96.0
22676;DHT22;12521;43.310;21.876;2022-10-16T11:46:26;19.2;96.0
22676;DHT22;12521;43.310;21.876;2022-10-16T11:51:29;19.4;95.0
22676;DHT22;12521;43.310;21.876;2022-10-16T11:56:32;19.4;95.0
22676;DHT22;12521;43.310;21.876;2022-10-16T12:01:31;19.6;95.0
22676;DHT22;12521;43.310;21.876;2022-10-16T12:06:40;19.6;95.0
22676;DHT22;12521;43.310;21.876;2022-10-16T12:11:38;19.8;94.0
22676;DHT22;12521;43.310;21.876;2022-10-16T12:16:23;19.8;94.0
22676;DHT22;12521;43.310;21.876;2022-10-16T12:21:00;19.8;94.0
22676;DHT22;12521;43.310;21.876;2022-10-16T12:25:40;20.1;93.0
22676;DHT22;12521;43.310;21.876;2022-10-16T12:30:25;20.1;93.0
22676;DHT22;12521;43.310;21.876;2022-10-16T12:35:21;20.2;92.0
22676;DHT22;12521;43.310;21.876;2022-10-16T12:40:15;20.2;92.0
22676;DHT22;12521;43.310;21.876;2022-10-16T12:45:31;20.3;91.0
22676;DHT22;12521;43.310;21.876;2022-10-16T12:50:30;20.3;91.0
22676;DHT22;12521;43.310;21.876;2022-10-16T12:55:19;20.4;91.0
22676;DHT22;12521;43.310;21.876;2022-10-16T13:00:13;20.4;91.0
22676;DHT22;12521;43.310;21.876;2022-10-16T13:05:32;20.4;91.0
22676;DHT22;12521;43.310;21.876;2022-10-16T13:10:41;20.4;91.0
22676;DHT22;12521;43.310;21.876;2022-10-16T13:16:06;20.6;91.0
22676;DHT22;12521;43.310;21.876;2022-10-16T13:21:45;20.8;91.0
22676;DHT22;12521;43.310;21.876;2022-10-16T13:26:52;20.8;91.0
22676;DHT22;12521;43.310;21.876;2022-10-16T13:32:07;21.0;90.0
22676;DHT22;12521;43.310;21.876;2022-10-16T13:36:53;21.0;90.0
22676;DHT22;12521;43.310;21.876;2022-10-16T13:41:30;21.2;90.0
22676;DHT22;12521;43.310;21.876;2022-10-16T13:46:15;21.2;90.0
22676;DHT22;12521;43.310;21.876;2022-10-16T13:51:01;21.2;90.0
22676;DHT22;12521;43.310;21.876;2022-10-16T13:55:50;21.0;89.0
22676;DHT22;12521;43.310;21.876;2022-10-16T14:00:28;21.0;89.0
22676;DHT22;12521;43.310;21.876;2022-10-16T14:05:10;20.9;89.0
22676;DHT22;12521;43.310;21.876;2022-10-16T14:09:53;20.9;89.0
22676;DHT22;12521;43.310;21.876;2022-10-16T14:14:41;20.6;87.0
22676;DHT22;12521;43.310;21.876;2022-10-16T14:19:28;20.6;87.0
22676;DHT22;12521;43.310;21.876;2022-10-16T14:24:13;20.4;86.0
22676;DHT22;12521;43.310;21.876;2022-10-16T14:29:15;20.4;86.0
22676;DHT22;12521;43.310;21.876;2022-10-16T14:33:58;20.2;86.0
22676;DHT22;12521;43.310;21.876;2022-10-16T14:38:39;20.2;86.0
22676;DHT22;12521;43.310;21.876;2022-10-16T14:43:43;19.9;85.0
22676;DHT22;12521;43.310;21.876;2022-10-16T14:48:20;19.9;85.0
22676;DHT22;12521;43.310;21.876;2022-10-16T14:52:59;19.8;86.0
22676;DHT22;12521;43.310;21.876;2022-10-16T14:57:38;19.8;86.0
22676;DHT22;12521;43.310;21.876;2022-10-16T15:02:29;19.6;86.0
22676;DHT22;12521;43.310;21.876;2022-10-16T15:07:11;19.6;86.0
22676;DHT22;12521;43.310;21.876;2022-10-16T15:11:48;19.3;87.0
22676;DHT22;12521;43.310;21.876;2022-10-16T15:16:25;19.3;87.0
22676;DHT22;12521;43.310;21.876;2022-10-16T15:21:02;19.3;87.0
22676;DHT22;12521;43.310;21.876;2022-10-16T15:25:45;19.0;88.0
22676;DHT22;12521;43.310;21.876;2022-10-16T15:30:29;19.0;88.0
22676;DHT22;12521;43.310;21.876;2022-10-16T15:35:09;18.8;89.0
22676;DHT22;12521;43.310;21.876;2022-10-16T15:39:45;18.8;89.0
22676;DHT22;12521;43.310;21.876;2022-10-16T15:44:22;18.5;90.0
22676;DHT22;12521;43.310;21.876;2022-10-16T15:48:58;18.5;90.0
22676;DHT22;12521;43.310;21.876;2022-10-16T15:53:36;18.2;91.0
22676;DHT22;12521;43.310;21.876;2022-10-16T15:58:12;18.2;91.0
22676;DHT22;12521;43.310;21.876;2022-10-16T16:02:52;17.9;93.0
22676;DHT22;12521;43.310;21.876;2022-10-16T16:07:32;17.9;93.0
22676;DHT22;12521;43.310;21.876;2022-10-16T16:12:11;17.6;93.0
22676;DHT22;12521;43.310;21.876;2022-10-16T16:16:47;17.6;93.0
22676;DHT22;12521;43.310;21.876;2022-10-16T16:21:24;17.6;93.0
22676;DHT22;12521;43.310;21.876;2022-10-16T16:26:09;17.3;94.0
22676;DHT22;12521;43.310;21.876;2022-10-16T16:31:01;17.3;94.0
22676;DHT22;12521;43.310;21.876;2022-10-16T16:35:39;17.0;94.0
22676;DHT22;12521;43.310;21.876;2022-10-16T16:40:16;17.0;94.0
22676;DHT22;12521;43.310;21.876;2022-10-16T16:44:53;16.8;95.0
22676;DHT22;12521;43.310;21.876;2022-10-16T16:49:31;16.8;95.0
22676;DHT22;12521;43.310;21.876;2022-10-16T16:54:10;16.6;95.0
22676;DHT22;12521;43.310;21.876;2022-10-16T16:58:51;16.6;95.0
22676;DHT22;12521;43.310;21.876;2022-10-16T17:03:35;16.3;95.0
22676;DHT22;12521;43.310;21.876;2022-10-16T17:08:12;16.3;95.0
22676;DHT22;12521;43.310;21.876;2022-10-16T17:12:49;16.1;96.0
22676;DHT22;12521;43.310;21.876;2022-10-16T17:17:26;16.1;96.0
22676;DHT22;12521;43.310;21.876;2022-10-16T17:22:03;15.9;96.0
22676;DHT22;12521;43.310;21.876;2022-10-16T17:26:39;15.9;96.0
22676;DHT22;12521;43.310;21.876;2022-10-16T17:31:20;15.9;96.0
22676;DHT22;12521;43.310;21.876;2022-10-16T17:36:06;15.8;96.0
22676;DHT22;12521;43.310;21.876;2022-10-16T17:40:46;15.8;96.0
22676;DHT22;12521;43.310;21.876;2022-10-16T17:45:23;15.6;96.0
22676;DHT22;12521;43.310;21.876;2022-10-16T17:50:00;15.6;96.0
22676;DHT22;12521;43.310;21.876;2022-10-16T17:54:37;15.4;96.0
22676;DHT22;12521;43.310;21.876;2022-10-16T17:59:14;15.4;96.0
22676;DHT22;12521;43.310;21.876;2022-10-16T18:03:55;15.3;96.0
22676;DHT22;12521;43.310;21.876;2022-10-16T18:08:40;15.3;96.0
22676;DHT22;12521;43.310;21.876;2022-10-16T18:13:16;15.1;96.0
22676;DHT22;12521;43.310;21.876;2022-10-16T18:17:53;15.1;96.0
22676;DHT22;12521;43.310;21.876;2022-10-16T18:22:29;14.9;96.0
22676;DHT22;12521;43.310;21.876;2022-10-16T18:27:07;14.9;96.0
22676;DHT22;12521;43.310;21.876;2022-10-16T18:31:44;14.6;96.0
22676;DHT22;12521;43.310;21.876;2022-10-16T18:36:24;14.6;96.0
22676;DHT22;12521;43.310;21.876;2022-10-16T18:41:04;14.6;96.0
22676;DHT22;12521;43.310;21.876;2022-10-16T18:45:40;14.3;96.0
22676;DHT22;12521;43.310;21.876;2022-10-16T18:50:17;14.3;96.0
22676;DHT22;12521;43.310;21.876;2022-10-16T18:54:55;14.0;96.0
22676;DHT22;12521;43.310;21.876;2022-10-16T18:59:32;14.0;96.0
22676;DHT22;12521;43.310;21.876;2022-10-16T19:04:14;13.7;96.0
22676;DHT22;12521;43.310;21.876;2022-10-16T19:08:54;13.7;96.0
22676;DHT22;12521;43.310;21.876;2022-10-16T19:13:33;13.5;96.0
22676;DHT22;12521;43.310;21.876;2022-10-16T19:18:12;13.5;96.0
22676;DHT22;12521;43.310;21.876;2022-10-16T19:22:49;13.3;96.0
22676;DHT22;12521;43.310;21.876;2022-10-16T19:27:26;13.3;96.0
22676;DHT22;12521;43.310;21.876;2022-10-16T19:32:04;13.2;96.0
22676;DHT22;12521;43.310;21.876;2022-10-16T19:36:41;13.2;96.0
22676;DHT22;12521;43.310;21.876;2022-10-16T19:41:19;13.2;96.0
22676;DHT22;12521;43.310;21.876;2022-10-16T19:46:04;13.0;96.0
22676;DHT22;12521;43.310;21.876;2022-10-16T19:50:50;13.0;96.0
22676;DHT22;12521;43.310;21.876;2022-10-16T19:55:30;13.0;96.0
22676;DHT22;12521;43.310;21.876;2022-10-16T20:00:09;13.0;96.0
22676;DHT22;12521;43.310;21.876;2022-10-16T20:04:49;12.9;96.0
22676;DHT22;12521;43.310;21.876;2022-10-16T20:09:26;12.9;96.0
22676;DHT22;12521;43.310;21.876;2022-10-16T20:14:04;12.8;96.0
22676;DHT22;12521;43.310;21.876;2022-10-16T20:18:42;12.8;96.0
22676;DHT22;12521;43.310;21.876;2022-10-16T20:23:22;12.8;96.0
22676;DHT22;12521;43.310;21.876;2022-10-16T20:27:59;12.8;96.0
22676;DHT22;12521;43.310;21.876;2022-10-16T20:32:36;12.7;96.0
22676;DHT22;12521;43.310;21.876;2022-10-16T20:37:13;12.7;96.0
22676;DHT22;12521;43.310;21.876;2022-10-16T20:41:50;12.6;96.0
22676;DHT22;12521;43.310;21.876;2022-10-16T20:46:27;12.6;96.0
22676;DHT22;12521;43.310;21.876;2022-10-16T20:51:14;12.6;96.0
22676;DHT22;12521;43.310;21.876;2022-10-16T20:55:53;12.5;96.0
22676;DHT22;12521;43.310;21.876;2022-10-16T21:00:30;12.5;96.0
22676;DHT22;12521;43.310;21.876;2022-10-16T21:05:07;12.4;96.0
22676;DHT22;12521;43.310;21.876;2022-10-16T21:09:44;12.4;96.0
22676;DHT22;12521;43.310;21.876;2022-10-16T21:14:20;12.4;96.0
22676;DHT22;12521;43.310;21.876;2022-10-16T21:18:57;12.4;96.0
22676;DHT22;12521;43.310;21.876;2022-10-16T21:23:34;12.3;96.0
22676;DHT22;12521;43.310;21.876;2022-10-16T21:28:10;12.3;96.0
22676;DHT22;12521;43.310;21.876;2022-10-16T21:32:46;12.2;96.0
22676;DHT22;12521;43.310;21.876;2022-10-16T21:37:23;12.2;96.0
22676;DHT22;12521;43.310;21.876;2022-10-16T21:41:59;12.1;96.0
22676;DHT22;12521;43.310;21.876;2022-10-16T21:46:40;12.1;96.0
22676;DHT22;12521;43.310;21.876;2022-10-16T21:51:26;12.1;96.0
22676;DHT22;12521;43.310;21.876;2022-10-16T21:56:13;12.0;96.0
22676;DHT22;12521;43.310;21.876;2022-10-16T22:00:53;12.0;96.0
22676;DHT22;12521;43.310;21.876;2022-10-16T22:05:32;11.8;96.0
22676;DHT22;12521;43.310;21.876;2022-10-16T22:10:10;11.8;96.0
22676;DHT22;12521;43.310;21.876;2022-10-16T22:14:47;11.6;96.0
22676;DHT22;12521;43.310;21.876;2022-10-16T22:19:23;11.6;96.0
22676;DHT22;12521;43.310;21.876;2022-10-16T22:24:01;11.5;96.0
22676;DHT22;12521;43.310;21.876;2022-10-16T22:28:40;11.5;96.0
22676;DHT22;12521;43.310;21.876;2022-10-16T22:33:18;11.3;96.0
22676;DHT22;12521;43.310;21.876;2022-10-16T22:37:55;11.3;96.0
22676;DHT22;12521;43.310;21.876;2022-10-16T22:42:32;11.1;96.0
22676;DHT22;12521;43.310;21.876;2022-10-16T22:47:08;11.1;96.0
22676;DHT22;12521;43.310;21.876;2022-10-16T22:51:45;11.1;96.0
22676;DHT22;12521;43.310;21.876;2022-10-16T22:56:24;11.0;96.0
22676;DHT22;12521;43.310;21.876;2022-10-16T23:01:10;11.0;96.0
22676;DHT22;12521;43.310;21.876;2022-10-16T23:06:02;10.9;96.0
22676;DHT22;12521;43.310;21.876;2022-10-16T23:10:45;10.9;96.0
22676;DHT22;12521;43.310;21.876;2022-10-16T23:15:24;10.8;96.0
22676;DHT22;12521;43.310;21.876;2022-10-16T23:20:01;10.8;96.0
22676;DHT22;12521;43.310;21.876;2022-10-16T23:24:40;10.6;96.0
22676;DHT22;12521;43.310;21.876;2022-10-16T23:29:17;10.6;96.0
22676;DHT22;12521;43.310;21.876;2022-10-16T23:33:56;10.5;96.0
22676;DHT22;12521;43.310;21.876;2022-10-16T23:38:34;10.5;96.0
22676;DHT22;12521;43.310;21.876;2022-10-16T23:43:10;10.4;96.0
22676;DHT22;12521;43.310;21.876;2022-10-16T23:47:46;10.4;96.0
22676;DHT22;12521;43.310;21.876;2022-10-16T23:52:23;10.4;96.0
22676;DHT22;12521;43.310;21.876;2022-10-16T23:56:59;10.4;96.0
